Rising Sun, Illinois
Current Conditions -  °F | °C
As of 7:35 PM on Tuesday 25 Nov 2014 (Local Time) from KCUL Reporting Station
Clear Clear  
Wind Chill: 23°   Ceiling: Unl
Heat Index: 29°   Visibility: 10mi
Dew Point: 27°   Wind: 6mph
Humidity: 92%   Direction: 10°N
Pressure: 30.21"   Gusts: NA
Location:  38.0491°N, 88.1124°W
Report Text: KCUL 260135Z AUTO 01005KT 10SM CLR M01/M03 A3021 RMK AO2 T10151026
Loading
Personal Weather Stations






























Interactive Weather Map New forecast layout! Learn more

10-Day Weather Forecast

Advertisements
Track Severe Weather on mobile